Time;durP1;ratioP1;P1;durP2;ratioP2;P2;SDS_P1;SDS_P2;PMS_P1;PMS_P2;Temp;Humidity;BMP_temperature;BMP_pressure;BME280_temperature;BME280_humidity;BME280_pressure;Samples;Min_cycle;Max_cycle;Signal;HPM_P1;HPM_P2
2022/03/03 00:00:10;;;;;;;106.15;38.08;;;1.00;99.90;;;;;;5113577;27;20504;-69
2022/03/03 00:02:36;;;;;;;107.65;39.22;;;1.00;99.90;;;;;;5113692;27;20042;-70
2022/03/03 00:05:03;;;;;;;107.70;37.42;;;0.90;99.90;;;;;;5114799;27;20058;-69
2022/03/03 00:07:28;;;;;;;110.72;38.80;;;0.90;99.90;;;;;;5089757;27;20043;-69
2022/03/03 00:09:54;;;;;;;104.68;38.95;;;0.90;99.90;;;;;;5113441;27;20066;-70
2022/03/03 00:12:20;;;;;;;107.88;38.40;;;0.90;99.90;;;;;;5114422;27;20035;-70
2022/03/03 00:14:45;;;;;;;109.57;38.47;;;0.80;99.90;;;;;;5113873;27;20503;-69
2022/03/03 00:17:11;;;;;;;109.10;38.15;;;0.90;99.90;;;;;;5113989;27;20035;-70
2022/03/03 00:19:37;;;;;;;106.90;38.55;;;0.90;99.90;;;;;;5114427;27;20099;-70
2022/03/03 00:22:03;;;;;;;115.63;41.03;;;0.90;99.90;;;;;;5114779;27;20429;-69
2022/03/03 00:24:29;;;;;;;107.10;37.88;;;0.90;99.90;;;;;;5114313;27;20096;-69
2022/03/03 00:26:55;;;;;;;108.63;39.45;;;1.00;99.90;;;;;;5112112;27;20122;-70
2022/03/03 00:29:21;;;;;;;109.63;38.13;;;1.00;99.90;;;;;;5113405;27;20114;-70
2022/03/03 00:31:47;;;;;;;103.43;37.92;;;0.90;99.90;;;;;;5113636;27;20134;-70
2022/03/03 00:34:13;;;;;;;103.15;37.95;;;0.90;99.90;;;;;;5114262;27;20087;-70
2022/03/03 00:36:39;;;;;;;103.13;37.63;;;0.90;99.90;;;;;;5112975;27;20043;-70
2022/03/03 00:39:05;;;;;;;109.78;38.10;;;0.90;99.90;;;;;;5113419;27;20031;-70
2022/03/03 00:41:30;;;;;;;112.82;40.42;;;0.80;99.90;;;;;;5113831;27;20046;-69
2022/03/03 00:43:56;;;;;;;113.75;39.58;;;0.80;99.90;;;;;;5112758;27;20127;-70
2022/03/03 00:46:21;;;;;;;115.10;40.17;;;0.80;99.90;;;;;;5114170;27;20045;-71
2022/03/03 00:48:47;;;;;;;112.78;40.17;;;0.70;99.90;;;;;;5111837;28;20035;-70
2022/03/03 00:51:12;;;;;;;114.10;40.05;;;0.70;99.90;;;;;;5109255;27;20047;-70
2022/03/03 00:53:38;;;;;;;106.53;38.95;;;0.70;99.90;;;;;;5093351;28;20039;-70
2022/03/03 00:56:04;;;;;;;111.90;38.72;;;0.70;99.90;;;;;;5105292;27;20066;-70
2022/03/03 00:58:30;;;;;;;106.72;37.92;;;0.60;99.90;;;;;;5112304;27;20038;-70
2022/03/03 01:00:56;;;;;;;111.25;38.83;;;0.60;99.90;;;;;;5110269;27;20035;-69
2022/03/03 01:03:22;;;;;;;106.22;39.08;;;0.60;99.90;;;;;;5107435;27;20036;-70
2022/03/03 01:05:47;;;;;;;106.95;37.35;;;0.60;99.90;;;;;;5093066;28;20039;-70
2022/03/03 01:08:13;;;;;;;113.45;39.17;;;0.60;99.90;;;;;;5112340;27;20262;-70
2022/03/03 01:10:39;;;;;;;112.20;38.83;;;0.60;99.90;;;;;;5103168;27;20046;-70
2022/03/03 01:13:06;;;;;;;113.35;38.88;;;0.60;99.90;;;;;;5113170;27;20039;-70
2022/03/03 01:15:32;;;;;;;109.82;39.38;;;0.50;99.90;;;;;;5113107;27;20405;-70
2022/03/03 01:17:58;;;;;;;111.93;39.38;;;0.50;99.90;;;;;;5113178;27;20035;-70
2022/03/03 01:20:23;;;;;;;116.10;39.00;;;0.50;99.90;;;;;;5094280;27;20096;-70
2022/03/03 01:22:49;;;;;;;111.65;40.38;;;0.50;99.90;;;;;;5090679;27;20047;-71
2022/03/03 01:25:15;;;;;;;120.93;41.63;;;0.50;99.90;;;;;;5131866;27;20092;-71
2022/03/03 01:27:40;;;;;;;113.72;40.08;;;0.50;99.90;;;;;;5111210;27;20119;-71
2022/03/03 01:30:07;;;;;;;111.25;40.80;;;0.60;99.90;;;;;;5113105;27;20126;-71
2022/03/03 01:32:33;;;;;;;115.90;41.22;;;0.60;99.90;;;;;;5112927;27;20073;-71
2022/03/03 01:34:59;;;;;;;108.60;39.25;;;0.60;99.90;;;;;;5096442;27;20039;-71
2022/03/03 01:37:25;;;;;;;117.88;41.33;;;0.50;99.90;;;;;;5112191;27;20122;-71
2022/03/03 01:39:50;;;;;;;111.30;40.28;;;0.50;99.90;;;;;;5112682;28;20203;-71
2022/03/03 01:42:17;;;;;;;119.28;41.13;;;0.50;99.90;;;;;;5111360;27;20493;-71
2022/03/03 01:44:44;;;;;;;115.20;41.00;;;0.40;99.90;;;;;;5113046;28;20050;-71
2022/03/03 01:47:22;;;;;;;106.10;39.15;;;0.40;99.90;;;;;;5112340;28;20090;-71
2022/03/03 01:49:50;;;;;;;115.43;39.83;;;0.30;99.90;;;;;;5112452;28;20043;-71
2022/03/03 01:52:16;;;;;;;109.65;40.08;;;0.30;99.90;;;;;;5112032;28;20439;-71
2022/03/03 01:54:42;;;;;;;111.50;39.08;;;0.20;99.90;;;;;;5111881;27;20043;-71
2022/03/03 01:57:09;;;;;;;113.55;41.00;;;0.20;99.90;;;;;;5112795;28;20023;-71
2022/03/03 01:59:35;;;;;;;113.55;41.13;;;0.20;99.90;;;;;;5112900;27;20045;-71
2022/03/03 02:02:03;;;;;;;119.43;40.15;;;0.20;99.90;;;;;;5101822;27;20046;-71
2022/03/03 02:04:29;;;;;;;111.13;39.10;;;0.20;99.90;;;;;;5117499;27;20397;-70
2022/03/03 02:06:54;;;;;;;110.93;38.55;;;0.20;99.90;;;;;;5116709;27;20043;-70
2022/03/03 02:09:20;;;;;;;109.70;37.50;;;0.20;99.90;;;;;;5107779;27;20066;-69
2022/03/03 02:11:46;;;;;;;110.50;39.35;;;0.20;99.90;;;;;;5098197;27;20047;-70
2022/03/03 02:14:13;;;;;;;106.68;39.95;;;0.20;99.90;;;;;;5114440;27;20034;-70
2022/03/03 02:16:39;;;;;;;97.45;35.83;;;0.20;99.90;;;;;;5097608;27;20127;-70
2022/03/03 02:19:05;;;;;;;102.07;38.30;;;0.10;99.90;;;;;;5115074;27;20046;-70
2022/03/03 02:21:31;;;;;;;105.13;38.50;;;0.10;99.90;;;;;;5115923;27;20050;-70
2022/03/03 02:23:56;;;;;;;108.45;38.17;;;0.00;99.90;;;;;;5116163;27;20042;-70
2022/03/03 02:26:24;;;;;;;96.68;36.30;;;0.00;99.90;;;;;;5114920;27;20043;-71
2022/03/03 02:28:51;;;;;;;100.22;36.70;;;-0.20;99.90;;;;;;5113679;27;20501;-71
2022/03/03 02:31:17;;;;;;;98.43;35.58;;;-0.40;99.90;;;;;;5115605;27;20046;-70
2022/03/03 02:33:43;;;;;;;114.32;40.15;;;-0.50;99.90;;;;;;5115602;27;20081;-70
2022/03/03 02:36:23;;;;;;;103.05;38.40;;;-0.50;99.90;;;;;;5115548;27;20031;-71
2022/03/03 02:38:55;;;;;;;105.88;38.72;;;-0.60;99.90;;;;;;5115193;27;20053;-71
2022/03/03 02:41:21;;;;;;;106.90;39.15;;;-0.60;99.90;;;;;;5116016;27;20043;-71
2022/03/03 02:43:47;;;;;;;111.63;40.92;;;-0.60;99.90;;;;;;5115496;27;20139;-71
2022/03/03 02:46:13;;;;;;;103.68;38.58;;;-0.50;99.90;;;;;;5114088;27;20042;-71
2022/03/03 02:48:39;;;;;;;108.40;38.38;;;-0.50;99.90;;;;;;5116163;27;20305;-70
2022/03/03 02:51:05;;;;;;;100.20;37.85;;;-0.50;99.90;;;;;;5115517;27;20031;-69
2022/03/03 02:53:31;;;;;;;102.45;37.08;;;-0.40;99.90;;;;;;5117219;27;20074;-69
2022/03/03 02:55:57;;;;;;;103.82;36.63;;;-0.40;99.90;;;;;;5124605;27;20027;-70
2022/03/03 02:58:22;;;;;;;105.72;36.13;;;-0.30;99.90;;;;;;5116962;27;20039;-70
2022/03/03 03:00:48;;;;;;;104.50;36.47;;;-0.30;99.90;;;;;;5111188;27;20511;-70
2022/03/03 03:03:14;;;;;;;99.13;37.00;;;-0.20;99.90;;;;;;5116012;27;20050;-70
2022/03/03 03:05:41;;;;;;;95.28;35.42;;;-0.20;99.90;;;;;;5116231;27;20027;-70
2022/03/03 03:08:07;;;;;;;102.55;35.40;;;-0.20;99.90;;;;;;5115996;27;20047;-69
2022/03/03 03:10:32;;;;;;;95.30;35.63;;;-0.30;99.90;;;;;;5115586;27;20445;-69
2022/03/03 03:12:58;;;;;;;102.22;35.45;;;-0.30;99.90;;;;;;5114527;27;20035;-69
2022/03/03 03:15:24;;;;;;;93.50;34.25;;;-0.30;99.90;;;;;;5098982;27;20039;-70
2022/03/03 03:17:51;;;;;;;92.82;35.72;;;-0.30;99.90;;;;;;5116296;27;20050;-69
2022/03/03 03:20:17;;;;;;;93.78;34.92;;;-0.40;99.90;;;;;;5116689;27;20053;-69
2022/03/03 03:22:43;;;;;;;102.75;36.70;;;-0.40;99.90;;;;;;5097755;27;20438;-70
2022/03/03 03:25:12;;;;;;;106.18;37.25;;;-0.40;99.90;;;;;;5115960;27;20118;-70
2022/03/03 03:27:39;;;;;;;102.57;36.75;;;-0.40;99.90;;;;;;5113457;27;20049;-70
2022/03/03 03:30:09;;;;;;;97.82;36.47;;;-0.50;99.90;;;;;;5099007;28;20126;-70
2022/03/03 03:32:35;;;;;;;101.68;37.50;;;-0.50;99.90;;;;;;5106222;27;20529;-70
2022/03/03 03:35:01;;;;;;;104.13;37.13;;;-0.60;99.90;;;;;;5115502;27;20047;-70
2022/03/03 03:37:26;;;;;;;101.15;38.15;;;-0.70;99.90;;;;;;5114092;27;20405;-70
2022/03/03 03:39:52;;;;;;;102.03;36.13;;;-0.60;99.90;;;;;;5114958;27;20080;-69
2022/03/03 03:42:17;;;;;;;97.05;36.60;;;-0.70;99.90;;;;;;5115967;27;20042;-70
2022/03/03 03:44:43;;;;;;;96.13;35.50;;;-0.70;99.90;;;;;;5114945;27;20065;-70
2022/03/03 03:47:10;;;;;;;96.85;34.90;;;-0.60;99.90;;;;;;5115036;27;20504;-72
2022/03/03 03:49:36;;;;;;;97.25;35.70;;;-0.60;99.90;;;;;;5114846;27;20122;-71
2022/03/03 03:52:03;;;;;;;93.55;34.35;;;-0.60;99.90;;;;;;5114925;27;20470;-71
2022/03/03 03:54:29;;;;;;;101.43;37.03;;;-0.60;99.90;;;;;;5104770;27;20043;-71
2022/03/03 03:56:55;;;;;;;99.35;36.50;;;-0.60;99.90;;;;;;5110217;27;20392;-72
2022/03/03 03:59:20;;;;;;;94.63;36.10;;;-0.60;99.90;;;;;;5114933;27;20039;-70
2022/03/03 04:01:46;;;;;;;89.82;34.47;;;-0.50;99.90;;;;;;5115372;27;20348;-69
2022/03/03 04:04:11;;;;;;;92.93;35.08;;;-0.50;99.90;;;;;;5115068;27;20043;-70
2022/03/03 04:06:37;;;;;;;89.93;33.53;;;-0.50;99.90;;;;;;5115847;27;20047;-70
2022/03/03 04:09:04;;;;;;;89.55;34.05;;;-0.50;99.90;;;;;;5115234;27;20169;-72
2022/03/03 04:11:29;;;;;;;90.65;33.25;;;-0.60;99.90;;;;;;5114121;27;20039;-70
2022/03/03 04:13:58;;;;;;;90.85;33.78;;;-0.60;99.90;;;;;;5115371;27;20439;-68
2022/03/03 04:16:25;;;;;;;89.78;34.55;;;-0.60;99.90;;;;;;5115910;27;20035;-69
2022/03/03 04:18:50;;;;;;;89.18;34.05;;;-0.60;99.90;;;;;;5114913;27;20061;-70
2022/03/03 04:21:16;;;;;;;93.57;34.05;;;-0.60;99.90;;;;;;5115466;27;20078;-70
2022/03/03 04:23:41;;;;;;;92.15;33.20;;;-0.70;99.90;;;;;;5114880;27;20115;-70
2022/03/03 04:26:07;;;;;;;88.05;32.72;;;-0.70;99.90;;;;;;5113921;27;20043;-71
2022/03/03 04:28:33;;;;;;;86.38;34.20;;;-0.70;99.90;;;;;;5116710;27;20042;-69
2022/03/03 04:30:59;;;;;;;88.03;33.42;;;-0.60;99.90;;;;;;5115333;27;20039;-69
2022/03/03 04:33:25;;;;;;;85.82;31.77;;;-0.70;99.90;;;;;;5114947;27;20386;-69
2022/03/03 04:35:50;;;;;;;88.03;32.53;;;-0.60;99.90;;;;;;5114994;27;20031;-70
2022/03/03 04:38:16;;;;;;;87.30;32.22;;;-0.60;99.90;;;;;;5115322;27;20435;-70
2022/03/03 04:40:41;;;;;;;90.22;34.45;;;-0.60;99.90;;;;;;5114445;27;20081;-69
2022/03/03 04:43:08;;;;;;;81.15;32.17;;;-0.70;99.90;;;;;;5115000;27;20126;-70
2022/03/03 04:45:34;;;;;;;82.47;32.22;;;-0.60;99.90;;;;;;5114745;27;20088;-71
2022/03/03 04:47:59;;;;;;;83.07;31.90;;;-0.70;99.90;;;;;;5114927;27;20436;-73
2022/03/03 04:50:25;;;;;;;82.47;31.65;;;-0.70;99.90;;;;;;5114628;27;20065;-69
2022/03/03 04:52:50;;;;;;;85.00;32.38;;;-0.70;99.90;;;;;;5113984;27;20039;-70
2022/03/03 04:55:16;;;;;;;86.68;32.38;;;-0.70;99.90;;;;;;5114710;27;20031;-72
2022/03/03 04:57:41;;;;;;;81.00;32.13;;;-0.60;99.90;;;;;;5112654;27;20404;-70
2022/03/03 05:00:08;;;;;;;80.38;32.75;;;-0.60;99.90;;;;;;5113874;27;20096;-72
2022/03/03 05:02:33;;;;;;;85.30;32.97;;;-0.60;99.90;;;;;;5109548;27;20035;-71
2022/03/03 05:05:00;;;;;;;80.70;30.90;;;-0.60;99.90;;;;;;5097245;27;20474;-71
2022/03/03 05:07:25;;;;;;;83.90;32.97;;;-0.60;99.90;;;;;;5114292;27;20180;-71
2022/03/03 05:09:51;;;;;;;79.57;32.63;;;-0.60;99.90;;;;;;5113463;27;20126;-73
2022/03/03 05:12:16;;;;;;;85.68;33.05;;;-0.50;99.90;;;;;;5114102;27;20095;-71
2022/03/03 05:14:42;;;;;;;85.97;32.83;;;-0.50;99.90;;;;;;5113330;27;20501;-71
2022/03/03 05:17:07;;;;;;;86.03;34.85;;;-0.50;99.90;;;;;;5113931;27;20486;-73
2022/03/03 05:19:33;;;;;;;85.00;32.92;;;-0.60;99.90;;;;;;5113208;27;20035;-76
2022/03/03 05:21:58;;;;;;;79.93;31.80;;;-0.60;99.90;;;;;;5113826;27;20039;-74
2022/03/03 05:24:24;;;;;;;92.97;35.05;;;-0.60;99.90;;;;;;5113675;27;20092;-72
2022/03/03 05:26:50;;;;;;;92.25;32.40;;;-0.60;99.90;;;;;;5113304;27;20060;-71
2022/03/03 05:29:16;;;;;;;80.20;32.72;;;-0.60;99.90;;;;;;5112886;27;20121;-70
2022/03/03 05:31:42;;;;;;;83.05;33.85;;;-0.60;99.90;;;;;;5113970;27;20157;-71
2022/03/03 05:34:08;;;;;;;89.05;34.38;;;-0.60;99.90;;;;;;5113380;27;20030;-70
2022/03/03 05:36:39;;;;;;;85.50;34.42;;;-0.60;99.90;;;;;;5111615;27;20061;-70
2022/03/03 05:39:05;;;;;;;89.15;35.03;;;-0.70;99.90;;;;;;5112299;28;20160;-70
2022/03/03 05:41:31;;;;;;;88.28;35.28;;;-0.70;99.90;;;;;;5113070;28;20133;-70
2022/03/03 05:43:58;;;;;;;82.05;34.13;;;-0.80;99.90;;;;;;5112398;28;20035;-70
2022/03/03 05:46:23;;;;;;;80.43;34.40;;;-0.80;99.90;;;;;;5113181;27;20378;-70
2022/03/03 05:48:49;;;;;;;81.32;33.35;;;-0.90;99.90;;;;;;5112545;28;20116;-70
2022/03/03 05:51:15;;;;;;;84.55;33.38;;;-0.90;99.90;;;;;;5095552;28;20044;-70
2022/03/03 05:53:41;;;;;;;81.88;33.95;;;-1.00;99.90;;;;;;5118821;28;20067;-70
2022/03/03 05:56:09;;;;;;;90.97;33.95;;;-1.00;99.90;;;;;;5112774;28;20070;-69
2022/03/03 05:58:49;;;;;;;87.00;33.85;;;-1.10;99.90;;;;;;5110810;28;20062;-70
2022/03/03 06:01:16;;;;;;;81.93;34.45;;;-1.10;99.90;;;;;;5112400;28;20123;-70
2022/03/03 06:03:45;;;;;;;86.57;33.53;;;-1.20;99.90;;;;;;5111710;28;20172;-70
2022/03/03 06:06:21;;;;;;;78.72;32.65;;;-1.10;99.90;;;;;;5111145;28;20039;-70
2022/03/03 06:08:56;;;;;;;87.47;34.35;;;-1.20;99.90;;;;;;5111768;28;20064;-70
2022/03/03 06:11:26;;;;;;;77.10;33.15;;;-1.20;99.90;;;;;;5111976;28;20066;-70
2022/03/03 06:13:54;;;;;;;82.05;33.40;;;-1.20;99.90;;;;;;5112655;28;20047;-70
2022/03/03 06:16:20;;;;;;;88.43;36.13;;;-1.20;99.90;;;;;;5112733;28;20043;-70
2022/03/03 06:18:47;;;;;;;81.25;34.05;;;-1.30;99.90;;;;;;5110823;28;20046;-70
2022/03/03 06:21:14;;;;;;;73.78;32.35;;;-1.20;99.90;;;;;;5111960;28;20560;-71
2022/03/03 06:23:40;;;;;;;78.45;33.50;;;-1.30;99.90;;;;;;5112891;28;20500;-71
2022/03/03 06:26:10;;;;;;;81.45;33.47;;;-1.30;99.90;;;;;;5112818;28;20043;-71
2022/03/03 06:28:36;;;;;;;78.32;32.92;;;-1.30;99.90;;;;;;5111447;28;20252;-70
2022/03/03 06:31:04;;;;;;;80.90;34.78;;;-1.30;99.90;;;;;;5109066;27;20540;-70
2022/03/03 06:33:30;;;;;;;79.32;32.22;;;-1.30;99.90;;;;;;5112168;28;20112;-70
2022/03/03 06:35:55;;;;;;;79.60;33.42;;;-1.20;99.90;;;;;;5112432;28;20043;-70
2022/03/03 06:38:21;;;;;;;77.18;31.40;;;-1.30;99.90;;;;;;5112890;28;20088;-70
2022/03/03 06:40:47;;;;;;;72.43;32.03;;;-1.20;99.90;;;;;;5111371;28;20043;-71
2022/03/03 06:43:12;;;;;;;78.57;31.73;;;-1.20;99.90;;;;;;5108645;28;20031;-71
2022/03/03 06:45:38;;;;;;;82.07;33.33;;;-1.10;99.90;;;;;;5112724;28;20077;-71
2022/03/03 06:48:04;;;;;;;82.07;32.42;;;-1.10;99.90;;;;;;5114389;27;20038;-71
2022/03/03 06:50:35;;;;;;;79.38;32.25;;;-1.10;99.90;;;;;;5115400;27;20043;-71
2022/03/03 06:53:03;;;;;;;79.60;31.95;;;-1.10;99.90;;;;;;5115617;27;20043;-71
2022/03/03 06:55:30;;;;;;;74.82;31.42;;;-1.10;99.90;;;;;;5115323;27;20118;-71
2022/03/03 06:57:57;;;;;;;77.65;32.63;;;-1.00;99.90;;;;;;5115950;27;20046;-70
2022/03/03 07:00:25;;;;;;;74.40;31.42;;;-1.00;99.90;;;;;;5113773;27;20081;-70
2022/03/03 07:02:52;;;;;;;69.07;29.70;;;-1.00;99.90;;;;;;5115993;27;20493;-71
2022/03/03 07:05:18;;;;;;;76.25;30.35;;;-0.90;99.90;;;;;;5134037;27;20039;-71
2022/03/03 07:07:47;;;;;;;69.90;30.75;;;-0.80;99.90;;;;;;5115594;27;20031;-71
2022/03/03 07:10:14;;;;;;;75.03;30.40;;;-0.70;99.90;;;;;;5114752;27;20170;-70
2022/03/03 07:12:41;;;;;;;74.10;30.45;;;-0.70;99.90;;;;;;5115443;27;20095;-70
2022/03/03 07:15:08;;;;;;;73.95;31.60;;;-0.60;99.90;;;;;;5114098;27;20070;-70
2022/03/03 07:17:53;;;;;;;79.25;30.35;;;-0.50;99.90;;;;;;5115738;27;20172;-70
2022/03/03 07:20:57;;;;;;;72.50;31.63;;;-0.40;99.90;;;;;;5108091;27;20043;-71
2022/03/03 07:23:30;;;;;;;71.65;29.42;;;-0.40;99.90;;;;;;5064370;27;20047;-70
2022/03/03 07:26:00;;;;;;;78.55;31.67;;;-0.30;99.90;;;;;;5115673;27;20431;-70
2022/03/03 07:28:28;;;;;;;72.20;29.58;;;-0.20;99.90;;;;;;5115630;27;20070;-70
2022/03/03 07:30:54;;;;;;;77.95;30.02;;;-0.10;99.90;;;;;;5115052;27;20108;-70
2022/03/03 07:33:36;;;;;;;75.07;30.58;;;0.00;99.90;;;;;;5113124;27;20401;-70
2022/03/03 07:36:02;;;;;;;71.95;28.92;;;0.00;99.90;;;;;;5107243;27;20031;-70
2022/03/03 07:38:35;;;;;;;71.95;29.55;;;0.10;99.90;;;;;;5115336;27;20464;-71
2022/03/03 07:41:02;;;;;;;72.28;29.33;;;0.20;99.90;;;;;;5112418;27;20047;-72
2022/03/03 07:43:28;;;;;;;75.50;29.88;;;0.30;99.90;;;;;;5114586;27;20035;-69
2022/03/03 07:45:54;;;;;;;80.00;31.83;;;0.40;99.90;;;;;;5114948;27;20035;-71
2022/03/03 07:48:22;;;;;;;69.22;29.20;;;0.40;99.90;;;;;;5114977;27;20088;-70
2022/03/03 07:50:48;;;;;;;78.20;30.77;;;0.50;99.90;;;;;;5114221;27;20382;-70
2022/03/03 07:53:14;;;;;;;74.55;31.88;;;0.60;99.90;;;;;;5115137;27;20035;-70
2022/03/03 07:55:48;;;;;;;75.90;30.02;;;0.70;99.90;;;;;;5114706;27;20054;-70
2022/03/03 07:58:16;;;;;;;72.90;30.98;;;0.70;99.90;;;;;;5113225;27;20054;-70
2022/03/03 08:00:47;;;;;;;71.80;30.55;;;0.80;99.90;;;;;;5113736;27;20255;-71
2022/03/03 08:03:15;;;;;;;75.53;30.48;;;0.90;99.90;;;;;;5114710;27;20611;-70
2022/03/03 08:05:44;;;;;;;75.32;30.70;;;1.00;99.90;;;;;;5114976;27;20035;-70
2022/03/03 08:08:13;;;;;;;70.50;30.35;;;1.10;99.90;;;;;;5115289;27;20401;-70
2022/03/03 08:10:41;;;;;;;71.88;30.20;;;1.20;99.90;;;;;;5113882;27;20405;-70
2022/03/03 08:13:13;;;;;;;78.40;30.00;;;1.30;99.90;;;;;;5115450;27;20039;-70
2022/03/03 08:15:39;;;;;;;82.82;30.48;;;1.40;99.90;;;;;;5108014;27;20039;-71
2022/03/03 08:18:05;;;;;;;77.13;32.03;;;1.40;99.90;;;;;;5114970;27;20031;-70
2022/03/03 08:20:33;;;;;;;73.28;30.45;;;1.60;99.90;;;;;;5114607;27;20122;-70
2022/03/03 08:23:00;;;;;;;75.03;30.10;;;1.70;99.90;;;;;;5114847;27;20497;-69
2022/03/03 08:25:26;;;;;;;78.75;31.10;;;1.80;99.90;;;;;;5115111;27;20043;-71
2022/03/03 08:27:53;;;;;;;74.53;29.75;;;2.00;99.90;;;;;;5114866;27;20035;-70
2022/03/03 08:30:19;;;;;;;79.15;30.85;;;2.00;99.90;;;;;;5107574;27;20054;-72
2022/03/03 08:33:00;;;;;;;73.53;30.65;;;2.10;99.90;;;;;;5109310;27;20043;-69
2022/03/03 08:35:29;;;;;;;77.15;30.38;;;2.20;99.90;;;;;;5094780;28;20027;-70
2022/03/03 08:38:07;;;;;;;72.10;30.38;;;2.30;99.90;;;;;;5110629;27;20042;-69
2022/03/03 08:40:34;;;;;;;81.10;32.55;;;2.40;99.90;;;;;;5114593;27;20492;-70
2022/03/03 08:43:02;;;;;;;82.70;32.80;;;2.50;99.90;;;;;;5114714;27;20118;-69
2022/03/03 08:45:31;;;;;;;81.22;31.60;;;2.60;99.90;;;;;;5114111;27;20397;-71
2022/03/03 08:48:10;;;;;;;83.00;32.17;;;2.70;99.90;;;;;;5114728;27;20043;-71
2022/03/03 08:50:37;;;;;;;82.85;31.80;;;2.80;99.90;;;;;;5113444;27;20070;-70
2022/03/03 08:53:05;;;;;;;81.43;31.88;;;2.80;99.90;;;;;;5114665;27;20490;-72
2022/03/03 08:55:32;;;;;;;85.40;32.97;;;2.90;99.90;;;;;;5114371;27;20039;-70
2022/03/03 08:57:58;;;;;;;81.07;32.70;;;3.00;99.90;;;;;;5114420;27;20386;-71
2022/03/03 09:00:25;;;;;;;81.15;32.90;;;3.10;99.90;;;;;;5112361;27;20087;-71
2022/03/03 09:02:52;;;;;;;84.40;32.58;;;3.20;99.90;;;;;;5097840;28;20039;-71
2022/03/03 09:05:18;;;;;;;89.45;34.72;;;3.30;99.90;;;;;;5093515;28;20044;-70
2022/03/03 09:07:44;;;;;;;85.32;33.80;;;3.40;99.90;;;;;;5111431;27;20458;-70
2022/03/03 09:10:10;;;;;;;81.57;32.83;;;3.50;99.90;;;;;;5111199;27;20428;-74
2022/03/03 09:12:36;;;;;;;86.90;34.20;;;3.70;99.90;;;;;;5113421;27;20031;-70
2022/03/03 09:15:03;;;;;;;85.32;32.83;;;3.70;99.90;;;;;;5112639;27;20035;-69
2022/03/03 09:17:28;;;;;;;82.25;33.92;;;3.90;99.90;;;;;;5113567;27;20448;-71
2022/03/03 09:19:54;;;;;;;90.95;33.45;;;4.00;99.90;;;;;;5112661;27;20043;-73
2022/03/03 09:22:19;;;;;;;84.03;32.75;;;4.10;99.90;;;;;;5112862;27;20047;-70
2022/03/03 09:24:45;;;;;;;83.18;32.65;;;4.20;99.90;;;;;;5109559;27;20051;-75
2022/03/03 09:27:10;;;;;;;90.00;33.67;;;4.30;99.90;;;;;;5113099;27;20079;-73
2022/03/03 09:29:36;;;;;;;81.38;31.83;;;4.40;99.90;;;;;;5113123;27;20088;-70
2022/03/03 09:32:06;;;;;;;83.97;34.00;;;4.50;99.90;;;;;;5101915;27;20418;-72
2022/03/03 09:34:32;;;;;;;89.82;32.17;;;4.60;99.90;;;;;;5112754;28;20073;-71
2022/03/03 09:36:58;;;;;;;88.00;32.95;;;4.70;99.90;;;;;;5112960;27;20043;-70
2022/03/03 09:39:24;;;;;;;86.85;34.13;;;4.80;99.90;;;;;;5112995;27;20504;-75
2022/03/03 09:41:51;;;;;;;87.68;35.45;;;4.90;99.90;;;;;;5113156;27;20043;-70
2022/03/03 09:44:24;;;;;;;83.55;33.85;;;5.00;99.90;;;;;;5112083;28;20039;-71
2022/03/03 09:46:50;;;;;;;90.05;35.50;;;5.10;99.90;;;;;;5109552;28;20053;-73
2022/03/03 09:49:17;;;;;;;90.18;33.47;;;5.20;99.90;;;;;;5113439;28;20049;-70
2022/03/03 09:51:42;;;;;;;84.60;35.90;;;5.30;99.90;;;;;;5112665;28;20448;-76
2022/03/03 09:54:08;;;;;;;79.13;32.60;;;5.30;99.90;;;;;;5112657;28;20126;-71
2022/03/03 09:56:34;;;;;;;89.97;35.70;;;5.40;99.90;;;;;;5099561;28;20075;-72
2022/03/03 09:58:59;;;;;;;83.63;33.35;;;5.50;99.90;;;;;;5111766;28;20121;-70
2022/03/03 10:01:29;;;;;;;79.70;32.47;;;5.60;99.90;;;;;;5106094;28;20042;-70
2022/03/03 10:03:58;;;;;;;84.47;32.05;;;5.70;99.90;;;;;;5109995;28;20046;-70
2022/03/03 10:06:23;;;;;;;80.38;31.95;;;5.80;99.90;;;;;;5110895;28;20038;-73
2022/03/03 10:08:53;;;;;;;76.35;32.13;;;5.90;99.90;;;;;;5110167;28;20435;-71
2022/03/03 10:11:18;;;;;;;78.80;31.50;;;6.00;99.90;;;;;;5111163;28;20035;-68
2022/03/03 10:13:48;;;;;;;78.30;33.67;;;6.10;99.90;;;;;;5113028;28;20482;-71
2022/03/03 10:16:23;;;;;;;80.38;33.10;;;6.20;99.90;;;;;;5112774;28;20080;-70
2022/03/03 10:18:59;;;;;;;88.05;33.92;;;6.30;99.90;;;;;;5112068;28;20086;-72
2022/03/03 10:21:29;;;;;;;84.20;33.20;;;6.40;99.90;;;;;;5113829;27;20035;-70
2022/03/03 10:23:56;;;;;;;86.85;33.97;;;6.50;99.90;;;;;;5114801;27;20031;-69
2022/03/03 10:26:38;;;;;;;76.88;31.08;;;6.60;99.90;;;;;;5116369;27;20409;-73
2022/03/03 10:29:16;;;;;;;77.32;31.38;;;6.80;99.90;;;;;;5114405;27;20050;-72
2022/03/03 10:31:50;;;;;;;83.25;32.00;;;6.90;99.90;;;;;;5115618;27;20041;-75
2022/03/03 10:34:18;;;;;;;76.72;32.17;;;7.00;99.90;;;;;;5114826;27;20398;-74
2022/03/03 10:36:44;;;;;;;74.45;30.50;;;7.00;99.90;;;;;;5116062;27;20053;-72
2022/03/03 10:39:09;;;;;;;79.18;31.58;;;7.20;99.90;;;;;;5114985;27;20039;-71
2022/03/03 10:41:42;;;;;;;76.45;32.88;;;7.30;99.90;;;;;;5115548;27;20047;-76
2022/03/03 10:44:09;;;;;;;;;;;7.40;99.90;;;;;;5116682;27;20070;-72
2022/03/03 10:46:37;;;;;;;78.22;32.22;;;7.50;99.90;;;;;;5115121;27;19915;-73
2022/03/03 10:49:25;;;;;;;85.32;31.48;;;7.50;99.90;;;;;;5114372;27;20066;-74
2022/03/03 10:51:51;;;;;;;86.38;32.92;;;7.70;99.90;;;;;;5115351;27;20130;-74
2022/03/03 10:54:17;;;;;;;80.40;31.17;;;7.80;99.90;;;;;;5115903;27;20644;-71
2022/03/03 10:56:45;;;;;;;82.05;34.00;;;7.90;99.90;;;;;;5115846;27;20035;-72
2022/03/03 10:59:17;;;;;;;80.30;33.33;;;8.00;99.90;;;;;;5114174;27;20046;-72
2022/03/03 11:01:44;;;;;;;68.43;28.42;;;8.00;99.90;;;;;;5097394;27;20036;-69
2022/03/03 11:04:19;;;;;;;73.53;31.45;;;8.10;99.90;;;;;;5115526;27;20039;-74
2022/03/03 11:06:48;;;;;;;80.60;32.50;;;8.10;99.90;;;;;;5116672;27;20042;-71
2022/03/03 11:09:15;;;;;;;78.53;30.48;;;8.20;99.90;;;;;;5115851;27;20041;-71
2022/03/03 11:11:40;;;;;;;76.28;31.95;;;8.30;99.90;;;;;;5117002;27;20096;-71
2022/03/03 11:14:06;;;;;;;84.22;32.53;;;8.40;99.90;;;;;;5111171;27;20027;-72
2022/03/03 11:16:32;;;;;;;72.07;29.98;;;8.50;99.90;;;;;;5107805;27;20035;-73
2022/03/03 11:18:58;;;;;;;66.72;28.25;;;8.60;99.90;;;;;;5115929;27;20043;-72
2022/03/03 11:21:24;;;;;;;62.33;28.50;;;8.70;99.90;;;;;;5119553;27;20126;-73
2022/03/03 11:23:56;;;;;;;66.68;29.75;;;8.80;99.90;;;;;;5115596;27;20114;-71
2022/03/03 11:26:30;;;;;;;75.15;28.98;;;8.90;99.90;;;;;;5115905;27;20055;-72
2022/03/03 11:29:10;;;;;;;67.88;29.42;;;8.90;99.90;;;;;;5114756;27;20109;-73
2022/03/03 11:31:37;;;;;;;67.60;28.73;;;9.00;98.00;;;;;;5115830;27;20063;-71
2022/03/03 11:34:36;;;;;;;71.63;29.52;;;9.00;98.80;;;;;;5114732;27;20056;-71
2022/03/03 11:37:17;;;;;;;66.07;28.60;;;9.00;99.90;;;;;;5116301;27;20050;-69
2022/03/03 11:40:01;;;;;;;65.63;27.80;;;9.00;97.70;;;;;;5114869;27;20153;-73
2022/03/03 11:42:31;;;;;;;72.03;29.27;;;9.10;97.90;;;;;;5095598;28;20130;-69
2022/03/03 11:45:09;;;;;;;66.40;29.85;;;9.20;99.90;;;;;;5108540;27;20066;-71
2022/03/03 11:47:41;;;;;;;73.38;31.25;;;9.20;99.90;;;;;;5115792;27;20540;-74
2022/03/03 11:50:16;;;;;;;65.70;27.35;;;9.30;99.90;;;;;;5114054;27;20436;-72
2022/03/03 11:52:43;;;;;;;66.75;27.75;;;9.30;99.30;;;;;;5115495;27;20086;-70
2022/03/03 11:55:48;;;;;;;67.40;30.40;;;9.40;97.90;;;;;;5115149;27;20039;-71
2022/03/03 11:58:26;;;;;;;62.90;27.70;;;9.40;99.90;;;;;;5093743;27;20085;-71
2022/03/03 12:01:02;;;;;;;61.67;26.95;;;9.40;93.90;;;;;;5120321;27;20050;-70
2022/03/03 12:03:28;;;;;;;65.72;25.77;;;9.50;94.40;;;;;;5115163;27;20104;-75
2022/03/03 12:06:04;;;;;;;61.35;27.33;;;9.50;95.40;;;;;;5114416;27;20077;-73
2022/03/03 12:08:32;;;;;;;54.28;24.67;;;9.50;90.20;;;;;;5114215;27;20039;-73
2022/03/03 12:11:16;;;;;;;55.17;24.40;;;9.50;72.50;;;;;;5114850;27;20493;-75
2022/03/03 12:13:50;;;;;;;54.22;23.25;;;9.50;87.90;;;;;;5133764;27;20135;-71
2022/03/03 12:16:20;;;;;;;54.53;26.05;;;9.50;78.20;;;;;;5114017;27;20039;-71
2022/03/03 12:18:48;;;;;;;58.40;27.10;;;9.60;90.10;;;;;;5113696;27;20042;-73
2022/03/03 12:21:23;;;;;;;55.35;25.63;;;9.60;88.60;;;;;;5114189;27;20058;-71
2022/03/03 12:23:49;;;;;;;55.15;24.80;;;9.60;86.00;;;;;;5114239;27;20046;-69
2022/03/03 12:26:15;;;;;;;57.03;25.10;;;9.60;84.40;;;;;;5114244;27;20031;-71
2022/03/03 12:28:45;;;;;;;50.03;23.30;;;9.70;88.50;;;;;;5113276;27;20035;-70
2022/03/03 12:31:23;;;;;;;47.65;21.30;;;9.60;89.50;;;;;;5112102;27;20047;-70
2022/03/03 12:33:58;;;;;;;54.40;22.25;;;9.70;77.60;;;;;;5113720;27;20558;-69